Time;durP1;ratioP1;P1;durP2;ratioP2;P2;SDS_P1;SDS_P2;PMS_P1;PMS_P2;Temp;Humidity;BMP_temperature;BMP_pressure;BME280_temperature;BME280_humidity;BME280_pressure;Samples;Min_cycle;Max_cycle;Signal;HPM_P1;HPM_P2
2024/01/11 00:00:14;;;;;;;4.55;3.55;;;21.20;44.60;;;;;;4963439;28;93083;-81
2024/01/11 00:02:40;;;;;;;7.05;3.65;;;21.20;44.50;;;;;;4964363;28;92361;-88
2024/01/11 00:05:06;;;;;;;5.05;3.65;;;21.10;44.70;;;;;;4961971;28;94030;-81
2024/01/11 00:07:32;;;;;;;5.43;3.80;;;21.10;44.60;;;;;;4965009;28;92442;-80
2024/01/11 00:09:58;;;;;;;5.45;3.67;;;21.10;44.70;;;;;;4961215;28;95739;-82
2024/01/11 00:12:23;;;;;;;5.50;3.67;;;21.10;44.70;;;;;;4965425;28;92683;-82
2024/01/11 00:14:49;;;;;;;5.25;3.60;;;21.00;44.80;;;;;;4955182;28;93211;-80
2024/01/11 00:17:15;;;;;;;5.25;3.78;;;21.00;44.70;;;;;;4959404;28;93042;-81
2024/01/11 00:19:41;;;;;;;4.97;4.10;;;21.00;44.70;;;;;;4957694;28;93732;-83
2024/01/11 00:22:07;;;;;;;4.43;3.20;;;21.00;44.70;;;;;;4959685;28;91672;-82
2024/01/11 00:24:32;;;;;;;5.07;3.63;;;21.00;44.70;;;;;;4958335;28;93046;-81
2024/01/11 00:26:58;;;;;;;4.93;3.45;;;20.90;44.60;;;;;;4961434;28;92377;-81
2024/01/11 00:29:24;;;;;;;5.28;3.58;;;20.90;44.50;;;;;;4955687;28;94108;-81
2024/01/11 00:31:49;;;;;;;4.97;3.67;;;20.90;44.60;;;;;;4958420;28;94689;-81
2024/01/11 00:34:15;;;;;;;5.00;3.50;;;20.90;44.70;;;;;;4958050;28;94911;-82
2024/01/11 00:36:41;;;;;;;5.43;3.75;;;20.80;44.50;;;;;;4962032;28;92528;-81
2024/01/11 00:39:06;;;;;;;4.40;3.38;;;20.80;44.60;;;;;;4958471;28;92915;-80
2024/01/11 00:41:32;;;;;;;5.25;3.70;;;20.80;44.70;;;;;;4964124;28;92501;-84
2024/01/11 00:43:57;;;;;;;5.35;3.95;;;20.80;44.60;;;;;;4968117;28;92991;-81
2024/01/11 00:46:23;;;;;;;4.97;3.75;;;20.70;44.60;;;;;;4964988;28;92504;-81
2024/01/11 00:48:49;;;;;;;4.70;3.38;;;20.70;44.50;;;;;;4966434;28;92264;-81
2024/01/11 00:51:15;;;;;;;5.45;3.80;;;20.70;45.20;;;;;;4967499;28;92768;-82
2024/01/11 00:53:41;;;;;;;7.43;3.90;;;20.70;44.60;;;;;;4959861;28;94134;-80
2024/01/11 00:56:16;;;;;;;5.22;3.67;;;20.70;44.70;;;;;;4958698;28;92363;-81
2024/01/11 00:58:42;;;;;;;4.25;3.47;;;20.70;44.50;;;;;;4963028;28;92653;-80
2024/01/11 01:01:09;;;;;;;4.57;3.42;;;20.60;44.40;;;;;;4961395;28;93494;-81
2024/01/11 01:03:35;;;;;;;5.68;4.30;;;20.60;44.60;;;;;;4959460;28;92004;-81
2024/01/11 01:06:01;;;;;;;6.00;4.13;;;20.60;44.60;;;;;;4959982;28;92495;-83
2024/01/11 01:08:27;;;;;;;4.85;3.70;;;20.60;44.50;;;;;;4959710;28;93710;-83
2024/01/11 01:10:53;;;;;;;4.85;3.50;;;20.60;44.40;;;;;;4962078;28;92229;-80
2024/01/11 01:13:18;;;;;;;5.72;3.83;;;20.50;44.40;;;;;;4961634;28;92533;-83
2024/01/11 01:15:44;;;;;;;5.72;3.83;;;20.50;44.70;;;;;;4962082;28;92447;-81
2024/01/11 01:18:10;;;;;;;4.22;3.42;;;20.50;45.10;;;;;;4960492;28;94212;-81
2024/01/11 01:20:35;;;;;;;3.95;3.08;;;20.50;44.50;;;;;;4958032;28;93203;-88
2024/01/11 01:23:01;;;;;;;5.70;3.38;;;20.50;44.50;;;;;;4959239;28;92537;-86
2024/01/11 01:25:27;;;;;;;4.72;3.65;;;20.50;44.50;;;;;;4958907;28;92333;-81
2024/01/11 01:27:53;;;;;;;5.28;3.90;;;20.40;44.50;;;;;;4958494;28;92610;-80
2024/01/11 01:30:18;;;;;;;5.43;3.85;;;20.40;44.40;;;;;;4960633;28;93433;-84
2024/01/11 01:32:44;;;;;;;4.82;3.70;;;20.40;44.50;;;;;;4958860;28;92716;-83
2024/01/11 01:35:10;;;;;;;5.05;3.88;;;20.40;44.40;;;;;;4962263;28;91731;-81
2024/01/11 01:37:35;;;;;;;5.53;4.03;;;20.40;44.20;;;;;;4960230;28;95086;-82
2024/01/11 01:40:01;;;;;;;7.07;4.35;;;20.30;44.30;;;;;;4958688;28;93632;-87
2024/01/11 01:42:27;;;;;;;5.38;3.90;;;20.40;44.50;;;;;;4959407;28;93581;-83
2024/01/11 01:44:52;;;;;;;4.72;3.40;;;20.30;44.50;;;;;;4966770;28;92404;-81
2024/01/11 01:47:18;;;;;;;6.53;3.80;;;20.30;44.40;;;;;;4966525;28;92801;-81
2024/01/11 01:49:46;;;;;;;4.47;3.58;;;20.30;44.60;;;;;;4967982;28;91958;-81
2024/01/11 01:52:14;;;;;;;4.80;3.78;;;20.20;44.70;;;;;;4967135;28;92568;-83
2024/01/11 01:54:40;;;;;;;4.68;3.75;;;20.30;44.60;;;;;;4962698;28;93182;-80
2024/01/11 01:57:09;;;;;;;4.85;3.53;;;20.20;44.50;;;;;;4969447;28;92571;-81
2024/01/11 01:59:35;;;;;;;7.03;4.20;;;20.20;44.50;;;;;;4965850;28;92871;-85
2024/01/11 02:02:01;;;;;;;4.50;3.47;;;20.10;44.40;;;;;;4965190;28;92510;-85
2024/01/11 02:04:27;;;;;;;4.78;3.55;;;20.20;44.60;;;;;;4962761;28;92700;-81
2024/01/11 02:06:54;;;;;;;6.43;4.20;;;20.20;44.60;;;;;;4960151;28;94475;-81
2024/01/11 02:12:00;;;;;;;4.60;3.72;;;20.10;45.10;;;;;;4978409;28;91803;-82
2024/01/11 02:14:26;;;;;;;7.30;4.05;;;20.10;44.50;;;;;;4983693;28;91787;-85
2024/01/11 02:16:52;;;;;;;5.22;3.75;;;20.10;44.60;;;;;;4981311;28;92305;-81
2024/01/11 02:19:19;;;;;;;4.65;3.58;;;20.10;44.60;;;;;;4982855;28;94060;-82
2024/01/11 02:21:48;;;;;;;5.40;4.00;;;20.10;44.60;;;;;;4970178;28;92413;-84
2024/01/11 02:24:14;;;;;;;4.50;3.47;;;20.00;44.40;;;;;;4966456;28;91814;-81
2024/01/11 02:27:01;;;;;;;5.45;4.18;;;20.00;44.40;;;;;;4961640;28;92637;-81
2024/01/11 02:29:27;;;;;;;4.65;3.60;;;20.00;44.40;;;;;;4962222;28;92216;-81
2024/01/11 02:31:57;;;;;;;4.88;3.67;;;20.00;44.30;;;;;;4959281;28;93558;-81
2024/01/11 02:34:23;;;;;;;;;;;20.00;44.50;;;;;;4957356;28;92556;-82
2024/01/11 02:36:50;;;;;;;5.55;3.78;;;20.00;44.50;;;;;;4960699;28;92562;-81
2024/01/11 02:39:17;;;;;;;5.10;3.78;;;19.90;45.10;;;;;;4956185;28;92293;-82
2024/01/11 02:41:44;;;;;;;4.32;3.65;;;20.00;44.30;;;;;;4958454;28;92518;-81
2024/01/11 02:44:10;;;;;;;5.20;3.80;;;19.90;44.30;;;;;;4957048;28;92153;-81
2024/01/11 02:46:35;;;;;;;5.97;3.80;;;19.90;44.30;;;;;;4959264;28;92940;-81
2024/01/11 02:49:01;;;;;;;5.78;3.63;;;19.90;44.50;;;;;;4959137;28;92787;-81
2024/01/11 02:51:27;;;;;;;4.35;3.45;;;19.90;44.40;;;;;;4958668;28;92323;-84
2024/01/11 02:53:52;;;;;;;4.80;3.78;;;19.90;44.40;;;;;;4956596;28;92678;-83
2024/01/11 02:56:18;;;;;;;6.40;3.63;;;19.80;44.30;;;;;;4957216;28;93710;-81
2024/01/11 02:58:44;;;;;;;12.52;4.00;;;19.80;44.40;;;;;;4955190;28;95204;-80
2024/01/11 03:01:10;;;;;;;4.35;3.40;;;19.80;44.40;;;;;;4959608;28;92375;-81
2024/01/11 03:03:35;;;;;;;4.85;3.85;;;19.80;44.40;;;;;;4958980;28;92827;-80
2024/01/11 03:06:01;;;;;;;5.50;3.88;;;19.70;44.40;;;;;;4958818;28;92576;-82
2024/01/11 03:08:27;;;;;;;6.35;4.10;;;19.80;44.40;;;;;;4957926;28;92923;-81
2024/01/11 03:10:53;;;;;;;5.13;4.10;;;19.70;44.40;;;;;;4956453;28;93246;-83
2024/01/11 03:13:18;;;;;;;5.90;4.05;;;19.70;44.30;;;;;;4958477;28;91674;-80
2024/01/11 03:15:44;;;;;;;4.93;3.70;;;19.70;44.30;;;;;;4958150;28;92943;-81
2024/01/11 03:18:10;;;;;;;5.80;4.32;;;19.70;44.20;;;;;;4958255;28;92718;-83
2024/01/11 03:20:35;;;;;;;5.18;3.83;;;19.70;44.30;;;;;;4955992;28;93567;-81
2024/01/11 03:23:01;;;;;;;4.72;3.28;;;19.70;44.40;;;;;;4955936;28;92402;-82
2024/01/11 03:25:28;;;;;;;5.15;3.70;;;19.70;44.30;;;;;;4959282;28;92616;-83
2024/01/11 03:27:54;;;;;;;5.55;4.28;;;19.60;44.30;;;;;;4956920;28;92700;-85
2024/01/11 03:30:20;;;;;;;6.03;4.10;;;19.60;44.30;;;;;;4957516;28;92389;-84
2024/01/11 03:32:45;;;;;;;5.18;3.92;;;19.60;44.20;;;;;;4956660;28;93159;-81
2024/01/11 03:35:11;;;;;;;5.25;3.80;;;19.60;44.20;;;;;;4954742;28;96162;-84
2024/01/11 03:37:37;;;;;;;6.25;3.88;;;19.60;44.10;;;;;;4957360;28;93560;-86
2024/01/11 03:40:03;;;;;;;4.90;3.67;;;19.60;44.30;;;;;;4953428;28;93223;-81
2024/01/11 03:42:29;;;;;;;5.70;3.90;;;19.60;44.20;;;;;;4955226;28;92017;-82
2024/01/11 03:44:55;;;;;;;6.28;3.88;;;19.60;44.10;;;;;;4952360;28;94223;-81
2024/01/11 03:47:21;;;;;;;4.40;3.75;;;19.50;44.20;;;;;;4957479;28;92966;-82
2024/01/11 03:49:47;;;;;;;4.70;3.90;;;19.50;44.20;;;;;;4958830;28;92440;-81
2024/01/11 03:52:12;;;;;;;4.93;4.00;;;19.50;44.20;;;;;;4959347;28;92654;-81
2024/01/11 03:54:38;;;;;;;6.38;3.75;;;19.50;44.20;;;;;;4957698;28;93155;-80
2024/01/11 03:57:04;;;;;;;4.43;3.67;;;19.50;44.30;;;;;;4957281;28;92164;-82
2024/01/11 03:59:30;;;;;;;5.85;3.92;;;19.50;44.10;;;;;;4961527;28;93111;-82
2024/01/11 04:01:57;;;;;;;4.70;3.45;;;19.50;44.10;;;;;;4960792;28;91808;-82
2024/01/11 04:04:23;;;;;;;5.03;3.60;;;19.50;44.20;;;;;;4957165;28;93042;-83
2024/01/11 04:06:49;;;;;;;4.45;3.60;;;19.40;44.20;;;;;;4958296;28;92774;-81
2024/01/11 04:09:15;;;;;;;5.40;4.10;;;19.40;44.10;;;;;;4960150;28;93493;-80
2024/01/11 04:11:41;;;;;;;6.82;4.60;;;19.40;44.20;;;;;;4959082;28;92604;-80
2024/01/11 04:14:06;;;;;;;6.95;4.05;;;19.40;44.20;;;;;;4957460;28;94609;-84
2024/01/11 04:16:32;;;;;;;3.67;3.08;;;19.40;44.20;;;;;;4955954;28;95909;-81
2024/01/11 04:18:58;;;;;;;5.55;4.25;;;19.40;44.20;;;;;;4959660;28;92658;-79
2024/01/11 04:21:28;;;;;;;6.63;4.68;;;19.40;44.20;;;;;;4957009;28;92654;-80
2024/01/11 04:23:54;;;;;;;5.20;4.32;;;19.40;44.10;;;;;;4959907;28;97428;-80
2024/01/11 04:26:21;;;;;;;5.25;4.10;;;19.40;44.20;;;;;;4957249;28;93269;-82
2024/01/11 04:28:47;;;;;;;5.70;4.38;;;19.40;44.40;;;;;;4956499;28;92593;-86
2024/01/11 04:31:18;;;;;;;5.82;4.15;;;19.40;44.90;;;;;;4958803;28;92638;-87
2024/01/11 04:33:45;;;;;;;6.72;4.38;;;19.40;45.30;;;;;;4955585;28;94039;-83
2024/01/11 04:36:12;;;;;;;5.15;3.75;;;19.40;45.20;;;;;;4957256;28;94537;-82
2024/01/11 04:38:38;;;;;;;6.43;4.30;;;19.40;45.10;;;;;;4957365;28;93386;-83
2024/01/11 04:41:13;;;;;;;4.13;3.63;;;19.50;45.00;;;;;;4957350;28;92554;-83
2024/01/11 04:43:40;;;;;;;6.05;3.63;;;19.50;44.90;;;;;;4954830;28;94673;-85
2024/01/11 04:46:16;;;;;;;6.63;4.00;;;19.50;45.00;;;;;;4971616;28;94944;-88
2024/01/11 04:48:42;;;;;;;4.97;3.67;;;19.60;45.00;;;;;;4957250;28;92850;-85
2024/01/11 04:51:08;;;;;;;3.88;3.22;;;19.60;44.90;;;;;;4959181;28;92070;-86
2024/01/11 04:53:37;;;;;;;6.15;4.00;;;19.70;45.10;;;;;;4957392;28;92557;-85
2024/01/11 04:56:02;;;;;;;5.33;3.77;;;19.70;45.10;;;;;;4959157;28;93019;-85
2024/01/11 04:58:28;;;;;;;4.30;3.20;;;19.70;45.00;;;;;;4958880;28;93860;-86
2024/01/11 05:00:54;;;;;;;4.85;3.28;;;19.70;44.90;;;;;;4954594;28;92966;-85
2024/01/11 05:03:19;;;;;;;3.78;3.10;;;19.80;44.90;;;;;;4957400;28;95804;-86
2024/01/11 05:05:45;;;;;;;4.72;3.25;;;19.80;44.80;;;;;;4959888;28;93291;-87
2024/01/11 05:08:10;;;;;;;4.15;3.63;;;19.80;44.90;;;;;;4957222;28;92327;-86
2024/01/11 05:10:36;;;;;;;4.13;3.17;;;19.90;44.90;;;;;;4957289;28;92925;-85
2024/01/11 05:13:02;;;;;;;4.63;3.53;;;19.80;44.90;;;;;;4957906;28;94509;-85
2024/01/11 05:15:27;;;;;;;4.38;3.35;;;19.90;44.90;;;;;;4956095;28;93539;-86
2024/01/11 05:17:55;;;;;;;6.25;4.32;;;19.90;44.80;;;;;;4955028;28;93161;-85
2024/01/11 05:20:21;;;;;;;4.55;3.75;;;19.90;44.90;;;;;;4953748;28;92866;-86
2024/01/11 05:22:47;;;;;;;5.03;3.72;;;19.80;44.90;;;;;;4956765;28;93489;-82
2024/01/11 05:25:12;;;;;;;4.78;3.85;;;19.90;44.90;;;;;;4958153;28;92598;-82
2024/01/11 05:27:38;;;;;;;4.72;3.55;;;19.90;44.90;;;;;;4959490;28;92538;-82
2024/01/11 05:30:04;;;;;;;5.20;3.70;;;19.90;44.90;;;;;;4955755;28;92311;-83
2024/01/11 05:32:30;;;;;;;4.50;3.30;;;19.90;45.10;;;;;;4957937;28;92610;-84
2024/01/11 05:34:55;;;;;;;4.07;3.30;;;19.90;45.20;;;;;;4954482;28;92370;-82
2024/01/11 05:37:21;;;;;;;4.38;3.50;;;19.90;45.20;;;;;;4959233;28;92875;-84
2024/01/11 05:39:47;;;;;;;3.67;3.08;;;19.90;45.10;;;;;;4957352;28;91790;-82
2024/01/11 05:42:13;;;;;;;4.95;3.28;;;19.90;45.00;;;;;;4958295;28;92228;-82
2024/01/11 05:44:38;;;;;;;5.07;3.55;;;20.00;45.00;;;;;;4954938;28;93239;-83
2024/01/11 05:47:04;;;;;;;3.28;2.78;;;20.00;45.10;;;;;;4957189;28;93879;-82
2024/01/11 05:49:30;;;;;;;5.80;4.00;;;20.00;44.90;;;;;;4956474;28;92696;-82
2024/01/11 05:51:56;;;;;;;3.88;3.28;;;20.00;44.80;;;;;;4953699;28;92855;-83
2024/01/11 05:54:21;;;;;;;4.38;3.47;;;20.00;44.70;;;;;;4957077;28;95431;-83
2024/01/11 05:56:47;;;;;;;4.53;3.55;;;20.00;44.70;;;;;;4957344;28;92984;-84
2024/01/11 05:59:13;;;;;;;4.10;3.67;;;20.00;44.60;;;;;;4954032;28;92023;-83
2024/01/11 06:01:46;;;;;;;4.60;3.47;;;20.00;44.90;;;;;;4952336;28;93060;-82
2024/01/11 06:04:11;;;;;;;5.68;3.58;;;20.00;44.90;;;;;;4958259;28;92836;-82
2024/01/11 06:06:37;;;;;;;6.22;3.47;;;20.00;45.00;;;;;;4958160;28;92532;-86
2024/01/11 06:09:04;;;;;;;4.68;3.40;;;20.00;45.10;;;;;;4957469;28;92626;-82
2024/01/11 06:11:30;;;;;;;4.50;3.60;;;20.00;45.00;;;;;;4954047;28;95461;-82
2024/01/11 06:13:55;;;;;;;4.97;3.60;;;20.00;45.00;;;;;;4954213;28;93101;-82
2024/01/11 06:16:21;;;;;;;4.25;3.42;;;20.00;45.10;;;;;;4958367;28;92601;-82
2024/01/11 06:18:47;;;;;;;3.83;3.22;;;20.00;45.20;;;;;;4952032;28;92891;-82
2024/01/11 06:21:13;;;;;;;4.90;3.53;;;20.00;45.10;;;;;;4960158;28;92710;-83
2024/01/11 06:23:39;;;;;;;4.93;3.58;;;20.10;45.10;;;;;;4957852;28;92902;-82
2024/01/11 06:26:04;;;;;;;3.90;3.08;;;20.10;45.00;;;;;;4954930;28;92562;-83
2024/01/11 06:28:30;;;;;;;5.68;3.55;;;20.10;45.00;;;;;;4958085;28;91823;-82
2024/01/11 06:30:55;;;;;;;3.88;3.10;;;20.10;44.90;;;;;;4953144;28;93745;-83
2024/01/11 06:33:21;;;;;;;4.75;3.58;;;20.10;44.90;;;;;;4957203;28;93172;-84
2024/01/11 06:35:47;;;;;;;6.38;3.90;;;20.10;44.90;;;;;;4960395;28;93302;-82
2024/01/11 06:38:12;;;;;;;4.93;3.78;;;20.10;44.80;;;;;;4956090;28;92932;-82
2024/01/11 06:40:38;;;;;;;3.92;3.38;;;20.10;44.70;;;;;;4960320;28;92648;-83
2024/01/11 06:43:04;;;;;;;5.13;3.65;;;20.10;44.70;;;;;;4957145;28;92221;-82
2024/01/11 06:45:29;;;;;;;4.35;3.35;;;20.10;44.70;;;;;;4957277;28;92854;-85
2024/01/11 06:47:55;;;;;;;4.63;3.40;;;20.10;45.10;;;;;;4957683;28;93510;-82
2024/01/11 06:50:20;;;;;;;4.75;3.78;;;20.10;44.80;;;;;;4957798;28;94270;-85
2024/01/11 06:52:46;;;;;;;6.40;3.17;;;20.10;44.10;;;;;;4959672;28;92975;-83
2024/01/11 06:55:12;;;;;;;5.30;3.78;;;20.10;44.30;;;;;;4956791;28;92433;-82
2024/01/11 06:57:38;;;;;;;6.47;4.13;;;20.10;44.50;;;;;;4958808;28;92204;-80
2024/01/11 07:00:04;;;;;;;4.43;3.47;;;20.10;44.70;;;;;;4954556;28;93773;-81
2024/01/11 07:02:30;;;;;;;5.45;3.67;;;20.10;44.70;;;;;;4955189;28;94720;-80
2024/01/11 07:04:55;;;;;;;7.63;4.20;;;20.10;44.50;;;;;;4956102;28;99291;-85
2024/01/11 07:07:21;;;;;;;4.70;3.60;;;20.10;44.70;;;;;;4957120;28;93293;-81
2024/01/11 07:09:47;;;;;;;6.05;2.88;;;20.10;44.60;;;;;;4957154;28;92991;-80
2024/01/11 07:12:12;;;;;;;5.45;3.90;;;20.10;44.50;;;;;;4956827;28;92512;-79
2024/01/11 07:14:38;;;;;;;6.25;3.65;;;20.10;44.50;;;;;;4954611;28;93005;-80
2024/01/11 07:17:04;;;;;;;5.35;3.70;;;20.10;44.60;;;;;;4954241;28;91910;-80
2024/01/11 07:19:29;;;;;;;6.75;3.85;;;20.10;44.70;;;;;;4957572;28;92849;-81
2024/01/11 07:21:55;;;;;;;5.00;3.55;;;20.10;44.60;;;;;;4953424;28;92657;-81
2024/01/11 07:24:21;;;;;;;5.22;3.55;;;20.10;44.60;;;;;;4957887;28;93816;-80
2024/01/11 07:26:47;;;;;;;7.63;3.83;;;20.10;44.60;;;;;;4959380;28;93337;-82
2024/01/11 07:29:12;;;;;;;4.97;3.33;;;20.10;44.70;;;;;;4960307;28;93638;-80
2024/01/11 07:31:38;;;;;;;6.57;3.55;;;20.10;44.70;;;;;;4956124;28;94469;-80
2024/01/11 07:34:04;;;;;;;5.75;4.07;;;20.10;44.60;;;;;;4956709;28;92704;-81
2024/01/11 07:36:30;;;;;;;5.80;3.83;;;20.00;44.70;;;;;;4954257;28;92586;-80
2024/01/11 07:38:56;;;;;;;4.45;3.45;;;20.00;44.70;;;;;;4958239;28;94039;-79
2024/01/11 07:41:22;;;;;;;4.10;3.70;;;20.10;44.80;;;;;;4960544;28;92553;-81
2024/01/11 07:43:48;;;;;;;7.20;3.83;;;20.10;44.80;;;;;;4961471;28;91994;-81
2024/01/11 07:46:13;;;;;;;5.57;3.78;;;20.10;44.90;;;;;;4962905;28;92644;-80
2024/01/11 07:48:39;;;;;;;4.55;3.40;;;20.10;44.70;;;;;;4967456;28;95432;-80
2024/01/11 07:51:05;;;;;;;5.75;3.70;;;20.10;44.80;;;;;;4966862;28;92737;-80
2024/01/11 07:53:31;;;;;;;5.97;3.67;;;20.10;44.80;;;;;;4972282;28;92524;-79
2024/01/11 07:55:57;;;;;;;5.63;3.72;;;20.10;44.90;;;;;;4961450;28;93180;-82
2024/01/11 07:58:23;;;;;;;5.18;3.65;;;20.20;44.90;;;;;;4958905;28;92401;-83
2024/01/11 08:00:49;;;;;;;6.97;4.38;;;20.10;45.00;;;;;;4960989;28;93237;-80
2024/01/11 08:03:15;;;;;;;4.80;3.53;;;20.10;45.10;;;;;;4963793;28;92093;-80
2024/01/11 08:05:43;;;;;;;5.07;3.58;;;20.10;45.20;;;;;;4962023;28;91918;-82
2024/01/11 08:08:08;;;;;;;5.68;4.07;;;20.20;45.10;;;;;;4959503;28;94317;-79
2024/01/11 08:10:34;;;;;;;4.45;3.35;;;20.20;44.70;;;;;;4962464;28;93304;-85
2024/01/11 08:13:00;;;;;;;5.47;3.38;;;20.20;44.70;;;;;;4959956;28;93709;-84
2024/01/11 08:15:26;;;;;;;6.95;4.50;;;20.20;44.80;;;;;;4955597;28;93093;-84
2024/01/11 08:17:51;;;;;;;4.80;4.15;;;20.20;45.00;;;;;;4959436;28;92764;-84
2024/01/11 08:20:17;;;;;;;6.13;3.80;;;20.20;45.00;;;;;;4955908;28;93188;-80
2024/01/11 08:22:47;;;;;;;6.07;4.07;;;20.20;44.70;;;;;;4960937;28;92525;-80
2024/01/11 08:25:13;;;;;;;6.03;4.43;;;20.20;44.70;;;;;;4958392;28;92164;-85
2024/01/11 08:27:39;;;;;;;8.77;4.25;;;20.20;44.70;;;;;;4955967;28;92249;-83
2024/01/11 08:30:06;;;;;;;25.23;8.65;;;20.20;44.90;;;;;;4956956;28;92369;-82
2024/01/11 08:32:38;;;;;;;19.08;6.95;;;20.20;43.30;;;;;;4958629;28;92922;-80
2024/01/11 08:35:06;;;;;;;14.40;5.63;;;20.20;43.90;;;;;;4956820;28;92710;-80
2024/01/11 08:37:32;;;;;;;14.73;5.43;;;20.20;44.30;;;;;;4959083;28;94548;-80
2024/01/11 08:39:57;;;;;;;11.77;5.10;;;20.20;44.50;;;;;;4962758;28;93915;-80
2024/01/11 08:42:23;;;;;;;8.02;4.55;;;20.30;44.60;;;;;;4960093;28;92618;-81
2024/01/11 08:44:49;;;;;;;10.57;5.65;;;20.30;44.50;;;;;;4968826;28;93140;-80
2024/01/11 08:47:14;;;;;;;10.10;4.75;;;20.30;44.60;;;;;;4965383;28;92693;-80
2024/01/11 08:49:40;;;;;;;11.48;4.82;;;20.30;44.30;;;;;;4972897;28;92497;-80
2024/01/11 08:52:07;;;;;;;8.88;4.68;;;20.30;44.30;;;;;;4964915;28;92694;-80
2024/01/11 08:54:33;;;;;;;9.10;5.00;;;20.20;44.40;;;;;;4964540;28;91776;-80
2024/01/11 08:57:00;;;;;;;14.45;5.90;;;20.20;44.30;;;;;;4962543;28;92785;-80
2024/01/11 08:59:25;;;;;;;10.43;5.10;;;20.30;44.40;;;;;;4962316;28;92999;-81
2024/01/11 09:01:54;;;;;;;11.85;4.60;;;20.20;44.20;;;;;;4974985;28;93296;-80
2024/01/11 09:04:19;;;;;;;8.57;5.13;;;20.20;44.10;;;;;;4981532;28;94497;-80
2024/01/11 09:06:45;;;;;;;12.02;5.97;;;20.20;44.20;;;;;;4977212;28;95063;-83
2024/01/11 09:09:13;;;;;;;10.93;5.45;;;20.20;44.10;;;;;;4973809;28;92257;-80
2024/01/11 09:11:40;;;;;;;13.38;5.45;;;20.20;44.20;;;;;;4962453;28;92383;-82
2024/01/11 09:14:11;;;;;;;16.45;5.43;;;20.20;44.00;;;;;;4957092;28;93618;-80
2024/01/11 09:16:37;;;;;;;10.10;5.45;;;20.20;44.20;;;;;;4957668;28;92335;-80
2024/01/11 09:19:02;;;;;;;10.10;5.47;;;20.20;44.20;;;;;;4956174;28;92246;-81
2024/01/11 09:21:28;;;;;;;8.38;4.93;;;20.20;44.40;;;;;;4955875;28;91991;-81
2024/01/11 09:23:55;;;;;;;9.95;4.97;;;20.30;44.50;;;;;;4957145;28;92416;-80
2024/01/11 09:26:21;;;;;;;8.88;4.88;;;20.30;44.40;;;;;;4956893;28;93443;-83
2024/01/11 09:28:47;;;;;;;9.23;5.10;;;20.30;44.50;;;;;;4955580;28;93173;-80
2024/01/11 09:31:13;;;;;;;7.35;4.60;;;20.30;44.30;;;;;;4957292;28;93049;-80
2024/01/11 09:33:38;;;;;;;9.43;5.38;;;20.30;44.40;;;;;;4958413;28;92863;-80
2024/01/11 09:36:04;;;;;;;10.98;5.03;;;20.30;44.20;;;;;;4956926;28;93136;-82
2024/01/11 09:38:30;;;;;;;12.80;5.32;;;20.30;44.10;;;;;;4957822;28;92457;-81
2024/01/11 09:41:08;;;;;;;8.65;5.22;;;20.30;44.20;;;;;;4953787;28;92860;-80
2024/01/11 09:43:36;;;;;;;9.50;5.13;;;20.30;44.30;;;;;;4957314;28;91847;-83
2024/01/11 09:46:07;;;;;;;8.85;4.65;;;20.30;44.10;;;;;;4953502;28;93056;-80
2024/01/11 09:48:35;;;;;;;8.68;4.85;;;20.30;44.10;;;;;;4954905;28;93436;-80
2024/01/11 09:51:07;;;;;;;10.90;5.55;;;20.30;43.90;;;;;;4957223;28;93394;-80
2024/01/11 09:53:34;;;;;;;10.70;5.55;;;20.30;44.00;;;;;;4956828;28;92489;-82
2024/01/11 09:56:00;;;;;;;11.85;5.57;;;20.20;43.80;;;;;;4955900;28;93072;-83
2024/01/11 09:58:26;;;;;;;9.00;5.28;;;20.20;43.80;;;;;;4955767;28;92473;-83
2024/01/11 10:00:59;;;;;;;10.48;5.47;;;20.20;44.00;;;;;;4956953;28;92919;-81
2024/01/11 10:03:26;;;;;;;10.60;5.15;;;20.20;44.00;;;;;;4956232;28;92302;-82
2024/01/11 10:05:57;;;;;;;8.93;5.20;;;20.20;44.00;;;;;;4958519;28;97912;-82
2024/01/11 10:08:23;;;;;;;11.02;5.05;;;20.30;44.00;;;;;;4955217;28;93427;-81
2024/01/11 10:10:49;;;;;;;8.93;4.70;;;20.30;44.10;;;;;;4955023;28;92118;-81
2024/01/11 10:13:16;;;;;;;10.10;5.20;;;20.30;44.20;;;;;;4954560;28;92844;-81
2024/01/11 10:15:42;;;;;;;8.40;4.32;;;20.30;44.00;;;;;;4957242;28;93750;-80
2024/01/11 10:18:08;;;;;;;10.95;4.72;;;20.30;43.90;;;;;;4953037;28;92633;-80
2024/01/11 10:20:34;;;;;;;8.85;5.13;;;20.30;44.00;;;;;;4956157;28;92792;-80
2024/01/11 10:23:01;;;;;;;8.25;4.68;;;20.30;43.90;;;;;;4956611;28;93150;-80
2024/01/11 10:25:27;;;;;;;10.35;5.45;;;20.30;43.80;;;;;;4956544;28;92612;-81
2024/01/11 10:27:52;;;;;;;11.30;5.43;;;20.30;43.90;;;;;;4955488;28;92570;-80
2024/01/11 10:30:20;;;;;;;10.73;5.38;;;20.20;43.80;;;;;;4958803;28;93238;-81
2024/01/11 10:32:46;;;;;;;8.63;5.03;;;20.20;43.70;;;;;;4953925;28;91797;-80
2024/01/11 10:35:13;;;;;;;9.55;5.60;;;20.30;43.90;;;;;;4955910;28;92942;-84
2024/01/11 10:37:39;;;;;;;9.00;5.38;;;20.30;43.90;;;;;;4954108;28;92717;-81
2024/01/11 10:40:12;;;;;;;9.00;4.97;;;20.30;43.80;;;;;;4952586;28;94149;-83
2024/01/11 10:42:51;;;;;;;10.70;5.32;;;20.30;43.90;;;;;;4951910;28;93318;-80
2024/01/11 10:45:19;;;;;;;9.63;5.47;;;20.40;43.90;;;;;;4958753;28;93412;-82
2024/01/11 10:47:53;;;;;;;8.15;5.07;;;20.40;43.80;;;;;;4955393;28;92888;-88
2024/01/11 10:50:19;;;;;;;12.68;6.13;;;20.40;43.70;;;;;;4964719;28;92088;-85
2024/01/11 10:53:01;;;;;;;7.90;5.20;;;20.40;43.00;;;;;;4955631;28;94244;-87
2024/01/11 10:55:31;;;;;;;8.70;4.95;;;20.40;43.10;;;;;;4957185;28;92548;-82
2024/01/11 10:57:58;;;;;;;8.68;5.10;;;20.40;43.50;;;;;;4956188;28;91550;-82
2024/01/11 11:00:24;;;;;;;10.98;5.93;;;20.40;43.90;;;;;;4959499;28;92710;-82
2024/01/11 11:02:51;;;;;;;8.20;5.00;;;20.40;44.00;;;;;;4957882;28;93280;-83
2024/01/11 11:05:20;;;;;;;9.23;5.55;;;20.40;44.20;;;;;;4955054;28;93985;-88
2024/01/11 11:07:50;;;;;;;8.00;4.93;;;20.40;44.50;;;;;;4960901;28;93210;-82
2024/01/11 11:10:18;;;;;;;8.90;5.80;;;20.40;44.50;;;;;;4953476;28;92612;-80
2024/01/11 11:12:46;;;;;;;7.68;5.13;;;20.40;44.50;;;;;;4950544;28;92897;-83
2024/01/11 11:15:13;;;;;;;9.45;5.38;;;20.40;44.40;;;;;;4951773;28;93116;-80
2024/01/11 11:17:43;;;;;;;8.82;5.72;;;20.40;44.90;;;;;;4954717;28;92460;-81
2024/01/11 11:20:13;;;;;;;8.65;5.22;;;20.40;44.90;;;;;;4957052;28;92474;-81
2024/01/11 11:22:42;;;;;;;10.02;5.78;;;20.40;45.10;;;;;;4956259;28;91656;-81
2024/01/11 11:25:24;;;;;;;11.50;6.18;;;20.40;44.90;;;;;;4952335;28;93993;-80
2024/01/11 11:27:50;;;;;;;10.13;5.68;;;20.40;44.80;;;;;;4956800;28;93775;-82
2024/01/11 11:30:19;;;;;;;11.15;5.82;;;20.40;44.80;;;;;;4955702;28;93516;-83
2024/01/11 11:32:46;;;;;;;13.32;5.63;;;20.40;45.10;;;;;;4957694;28;92203;-83
2024/01/11 11:35:12;;;;;;;11.18;5.72;;;20.40;45.20;;;;;;4954494;28;93247;-84
2024/01/11 11:37:42;;;;;;;10.13;5.22;;;20.40;45.30;;;;;;4956935;28;92972;-86
2024/01/11 11:40:12;;;;;;;10.73;5.13;;;20.40;45.30;;;;;;4948217;28;92384;-81
2024/01/11 11:42:39;;;;;;;8.90;5.03;;;20.50;45.40;;;;;;4936398;28;92392;-84
2024/01/11 11:45:07;;;;;;;10.80;5.85;;;20.50;45.50;;;;;;4957885;28;92938;-80
2024/01/11 11:47:39;;;;;;;9.30;5.60;;;20.50;45.00;;;;;;4953407;28;92607;-81
2024/01/11 11:50:11;;;;;;;8.77;5.90;;;20.50;45.20;;;;;;4954649;28;92388;-83
2024/01/11 11:52:43;;;;;;;10.07;5.80;;;20.50;45.30;;;;;;4950172;28;92873;-81
2024/01/11 11:55:09;;;;;;;9.15;4.97;;;20.50;45.50;;;;;;4945947;28;96195;-82
2024/01/11 11:57:35;;;;;;;12.68;5.90;;;20.50;45.50;;;;;;4950436;28;93631;-86
2024/01/11 12:00:05;;;;;;;9.65;6.10;;;20.60;45.60;;;;;;4953682;28;93107;-83
2024/01/11 12:02:31;;;;;;;10.68;5.57;;;20.50;45.40;;;;;;4952231;28;92709;-88
2024/01/11 12:04:57;;;;;;;8.50;5.13;;;20.50;45.60;;;;;;4949292;28;93700;-81
2024/01/11 12:07:23;;;;;;;10.10;6.07;;;20.50;45.10;;;;;;4953593;28;92846;-80
2024/01/11 12:09:50;;;;;;;8.13;5.45;;;20.50;45.10;;;;;;4953280;28;92010;-80
2024/01/11 12:12:17;;;;;;;12.77;6.45;;;20.50;45.10;;;;;;4946737;28;93739;-82
2024/01/11 12:14:43;;;;;;;10.48;5.97;;;20.50;45.00;;;;;;4955230;28;93668;-81
2024/01/11 12:17:09;;;;;;;8.75;5.68;;;20.50;45.20;;;;;;4949336;28;95282;-81
2024/01/11 12:19:35;;;;;;;9.27;5.50;;;20.50;45.40;;;;;;4949700;28;93523;-82
2024/01/11 12:22:00;;;;;;;9.52;5.13;;;20.60;45.30;;;;;;4949873;28;92591;-82
2024/01/11 12:24:26;;;;;;;14.00;6.40;;;20.70;45.60;;;;;;4952602;28;92725;-81
2024/01/11 12:26:53;;;;;;;8.20;5.07;;;20.80;45.50;;;;;;4954377;28;92517;-81
2024/01/11 12:29:19;;;;;;;11.48;6.43;;;20.90;45.50;;;;;;4953990;28;92298;-84
2024/01/11 12:31:45;;;;;;;15.32;6.75;;;21.00;44.70;;;;;;4951105;28;92338;-82
2024/01/11 12:34:15;;;;;;;18.08;7.50;;;21.10;44.00;;;;;;4955232;28;92832;-82
2024/01/11 12:36:41;;;;;;;12.55;6.63;;;21.20;42.60;;;;;;4953450;28;95571;-81
2024/01/11 12:39:08;;;;;;;12.45;7.53;;;21.30;41.40;;;;;;4951141;28;93141;-82
2024/01/11 12:41:35;;;;;;;12.18;6.63;;;21.30;39.00;;;;;;4951502;28;93332;-84
2024/01/11 12:44:01;;;;;;;15.90;7.70;;;21.30;39.10;;;;;;4951102;28;94072;-89